sensor_id;sensor_type;location;lat;lon;timestamp;P1;durP1;ratioP1;P2;durP2;ratioP2
62419;SDS011;48460;51.616;5.426;2023-05-10T02:15:01;81.53;;;33.15;;
62419;SDS011;48460;51.616;5.426;2023-05-10T02:25:15;104.35;;;39.65;;
62419;SDS011;48460;51.616;5.426;2023-05-10T02:34:26;108.25;;;41.28;;
62419;SDS011;48460;51.616;5.426;2023-05-10T02:37:39;97.32;;;39.30;;
62419;SDS011;48460;51.616;5.426;2023-05-10T02:40:29;94.57;;;39.22;;
62419;SDS011;48460;51.616;5.426;2023-05-10T02:43:22;98.50;;;39.70;;
62419;SDS011;48460;51.616;5.426;2023-05-10T02:46:37;106.70;;;39.17;;
62419;SDS011;48460;51.616;5.426;2023-05-10T02:49:38;97.30;;;40.28;;
62419;SDS011;48460;51.616;5.426;2023-05-10T02:52:23;104.60;;;39.90;;
62419;SDS011;48460;51.616;5.426;2023-05-10T02:55:40;92.13;;;38.78;;
62419;SDS011;48460;51.616;5.426;2023-05-10T02:58:35;93.88;;;38.42;;
62419;SDS011;48460;51.616;5.426;2023-05-10T03:01:23;101.85;;;38.67;;
62419;SDS011;48460;51.616;5.426;2023-05-10T03:04:06;103.10;;;42.53;;
62419;SDS011;48460;51.616;5.426;2023-05-10T03:25:41;126.55;;;45.80;;
62419;SDS011;48460;51.616;5.426;2023-05-10T03:42:40;115.07;;;44.92;;
62419;SDS011;48460;51.616;5.426;2023-05-10T03:49:25;106.95;;;41.35;;
62419;SDS011;48460;51.616;5.426;2023-05-10T03:55:11;87.38;;;37.05;;
62419;SDS011;48460;51.616;5.426;2023-05-10T04:01:36;89.53;;;35.38;;
62419;SDS011;48460;51.616;5.426;2023-05-10T04:04:30;80.97;;;34.10;;
62419;SDS011;48460;51.616;5.426;2023-05-10T04:16:49;75.28;;;29.77;;
62419;SDS011;48460;51.616;5.426;2023-05-10T04:19:42;82.82;;;30.75;;
62419;SDS011;48460;51.616;5.426;2023-05-10T04:29:29;67.47;;;29.05;;
62419;SDS011;48460;51.616;5.426;2023-05-10T04:34:57;92.57;;;33.53;;
62419;SDS011;48460;51.616;5.426;2023-05-10T04:38:13;88.60;;;34.15;;
62419;SDS011;48460;51.616;5.426;2023-05-10T04:41:09;80.93;;;32.53;;
62419;SDS011;48460;51.616;5.426;2023-05-10T04:44:03;72.70;;;31.33;;
62419;SDS011;48460;51.616;5.426;2023-05-10T04:49:29;71.20;;;29.95;;
62419;SDS011;48460;51.616;5.426;2023-05-10T04:52:30;63.72;;;28.67;;
62419;SDS011;48460;51.616;5.426;2023-05-10T04:55:20;68.13;;;29.00;;
62419;SDS011;48460;51.616;5.426;2023-05-10T04:57:57;61.10;;;27.30;;
62419;SDS011;48460;51.616;5.426;2023-05-10T05:00:29;63.70;;;27.80;;
62419;SDS011;48460;51.616;5.426;2023-05-10T05:03:02;57.42;;;26.63;;
62419;SDS011;48460;51.616;5.426;2023-05-10T05:05:37;56.72;;;25.90;;
62419;SDS011;48460;51.616;5.426;2023-05-10T05:10:51;57.85;;;26.48;;
62419;SDS011;48460;51.616;5.426;2023-05-10T05:13:36;54.85;;;27.08;;
62419;SDS011;48460;51.616;5.426;2023-05-10T05:16:05;58.25;;;27.27;;
62419;SDS011;48460;51.616;5.426;2023-05-10T05:18:37;59.13;;;27.58;;
62419;SDS011;48460;51.616;5.426;2023-05-10T05:21:02;54.08;;;28.08;;
62419;SDS011;48460;51.616;5.426;2023-05-10T05:23:28;59.78;;;28.92;;
62419;SDS011;48460;51.616;5.426;2023-05-10T05:25:56;53.85;;;28.25;;
62419;SDS011;48460;51.616;5.426;2023-05-10T05:28:22;59.65;;;28.25;;
62419;SDS011;48460;51.616;5.426;2023-05-10T05:30:48;57.30;;;28.25;;
62419;SDS011;48460;51.616;5.426;2023-05-10T05:33:18;56.85;;;27.63;;
62419;SDS011;48460;51.616;5.426;2023-05-10T05:35:43;54.22;;;27.38;;
62419;SDS011;48460;51.616;5.426;2023-05-10T05:38:20;60.63;;;28.55;;
62419;SDS011;48460;51.616;5.426;2023-05-10T05:40:45;56.42;;;28.10;;
62419;SDS011;48460;51.616;5.426;2023-05-10T05:43:13;57.13;;;27.83;;
62419;SDS011;48460;51.616;5.426;2023-05-10T05:45:40;53.25;;;27.85;;
62419;SDS011;48460;51.616;5.426;2023-05-10T05:48:06;55.22;;;27.92;;
62419;SDS011;48460;51.616;5.426;2023-05-10T05:50:43;58.38;;;28.25;;
62419;SDS011;48460;51.616;5.426;2023-05-10T05:53:18;53.90;;;26.90;;
62419;SDS011;48460;51.616;5.426;2023-05-10T05:55:57;56.88;;;28.75;;
62419;SDS011;48460;51.616;5.426;2023-05-10T05:58:33;59.70;;;30.30;;
62419;SDS011;48460;51.616;5.426;2023-05-10T06:01:10;50.90;;;26.10;;
62419;SDS011;48460;51.616;5.426;2023-05-10T06:03:53;58.17;;;28.67;;
62419;SDS011;48460;51.616;5.426;2023-05-10T06:06:45;53.60;;;28.10;;
62419;SDS011;48460;51.616;5.426;2023-05-10T06:12:31;52.70;;;26.50;;
62419;SDS011;48460;51.616;5.426;2023-05-10T06:15:32;55.00;;;27.15;;
62419;SDS011;48460;51.616;5.426;2023-05-10T06:17:58;53.60;;;27.58;;
62419;SDS011;48460;51.616;5.426;2023-05-10T06:20:28;53.45;;;26.13;;
62419;SDS011;48460;51.616;5.426;2023-05-10T06:22:59;52.20;;;26.45;;
62419;SDS011;48460;51.616;5.426;2023-05-10T06:25:28;52.83;;;25.88;;
62419;SDS011;48460;51.616;5.426;2023-05-10T06:28:13;57.20;;;29.10;;
62419;SDS011;48460;51.616;5.426;2023-05-10T06:30:47;49.17;;;26.90;;
62419;SDS011;48460;51.616;5.426;2023-05-10T06:33:13;52.88;;;28.13;;
62419;SDS011;48460;51.616;5.426;2023-05-10T06:36:07;53.78;;;26.55;;
62419;SDS011;48460;51.616;5.426;2023-05-10T06:38:43;55.63;;;24.55;;
62419;SDS011;48460;51.616;5.426;2023-05-10T06:41:29;51.55;;;26.65;;
62419;SDS011;48460;51.616;5.426;2023-05-10T06:43:59;52.17;;;27.02;;
62419;SDS011;48460;51.616;5.426;2023-05-10T06:46:45;49.90;;;26.70;;
62419;SDS011;48460;51.616;5.426;2023-05-10T06:49:11;55.70;;;27.95;;
62419;SDS011;48460;51.616;5.426;2023-05-10T06:54:12;55.03;;;27.65;;
62419;SDS011;48460;51.616;5.426;2023-05-10T06:56:38;49.60;;;26.92;;
62419;SDS011;48460;51.616;5.426;2023-05-10T06:59:10;55.00;;;27.73;;
62419;SDS011;48460;51.616;5.426;2023-05-10T07:01:49;48.17;;;27.10;;
62419;SDS011;48460;51.616;5.426;2023-05-10T07:04:31;51.08;;;27.25;;
62419;SDS011;48460;51.616;5.426;2023-05-10T07:07:12;47.60;;;27.35;;
62419;SDS011;48460;51.616;5.426;2023-05-10T07:09:48;55.88;;;28.63;;
62419;SDS011;48460;51.616;5.426;2023-05-10T07:12:24;55.42;;;29.10;;
62419;SDS011;48460;51.616;5.426;2023-05-10T07:14:50;58.47;;;29.67;;
62419;SDS011;48460;51.616;5.426;2023-05-10T07:17:21;58.42;;;29.63;;
62419;SDS011;48460;51.616;5.426;2023-05-10T07:19:50;61.10;;;29.73;;
62419;SDS011;48460;51.616;5.426;2023-05-10T07:22:19;56.47;;;29.42;;
62419;SDS011;48460;51.616;5.426;2023-05-10T07:24:52;60.15;;;29.42;;
62419;SDS011;48460;51.616;5.426;2023-05-10T07:27:18;57.85;;;28.80;;
62419;SDS011;48460;51.616;5.426;2023-05-10T07:29:48;49.00;;;27.10;;
62419;SDS011;48460;51.616;5.426;2023-05-10T07:32:16;48.85;;;26.23;;
62419;SDS011;48460;51.616;5.426;2023-05-10T07:34:41;53.55;;;27.38;;
62419;SDS011;48460;51.616;5.426;2023-05-10T07:37:07;51.95;;;26.27;;
62419;SDS011;48460;51.616;5.426;2023-05-10T07:39:42;46.33;;;24.60;;
62419;SDS011;48460;51.616;5.426;2023-05-10T07:42:19;49.58;;;25.67;;
62419;SDS011;48460;51.616;5.426;2023-05-10T07:44:52;46.70;;;25.17;;
62419;SDS011;48460;51.616;5.426;2023-05-10T07:47:31;44.35;;;25.02;;
62419;SDS011;48460;51.616;5.426;2023-05-10T07:49:59;51.33;;;26.23;;
62419;SDS011;48460;51.616;5.426;2023-05-10T07:52:28;47.95;;;25.10;;
62419;SDS011;48460;51.616;5.426;2023-05-10T07:55:17;43.45;;;22.45;;
62419;SDS011;48460;51.616;5.426;2023-05-10T07:57:57;39.47;;;21.02;;
62419;SDS011;48460;51.616;5.426;2023-05-10T08:00:25;33.90;;;20.25;;
62419;SDS011;48460;51.616;5.426;2023-05-10T08:02:58;35.35;;;20.10;;
62419;SDS011;48460;51.616;5.426;2023-05-10T08:05:50;40.85;;;20.63;;
62419;SDS011;48460;51.616;5.426;2023-05-10T08:08:23;35.85;;;20.13;;
62419;SDS011;48460;51.616;5.426;2023-05-10T08:10:49;33.58;;;20.27;;
62419;SDS011;48460;51.616;5.426;2023-05-10T08:13:28;32.92;;;20.45;;
62419;SDS011;48460;51.616;5.426;2023-05-10T08:16:05;37.10;;;20.17;;
62419;SDS011;48460;51.616;5.426;2023-05-10T08:18:41;39.10;;;20.77;;
62419;SDS011;48460;51.616;5.426;2023-05-10T08:21:08;30.23;;;19.90;;
62419;SDS011;48460;51.616;5.426;2023-05-10T08:23:48;30.63;;;17.17;;
62419;SDS011;48460;51.616;5.426;2023-05-10T08:26:21;30.52;;;17.73;;
62419;SDS011;48460;51.616;5.426;2023-05-10T08:28:53;29.35;;;17.70;;
62419;SDS011;48460;51.616;5.426;2023-05-10T08:31:22;34.35;;;18.38;;
62419;SDS011;48460;51.616;5.426;2023-05-10T08:34:16;26.70;;;16.00;;
62419;SDS011;48460;51.616;5.426;2023-05-10T08:37:14;23.70;;;15.27;;
62419;SDS011;48460;51.616;5.426;2023-05-10T08:39:42;25.92;;;15.45;;
62419;SDS011;48460;51.616;5.426;2023-05-10T08:42:21;26.75;;;15.88;;
62419;SDS011;48460;51.616;5.426;2023-05-10T08:44:57;23.75;;;15.15;;
62419;SDS011;48460;51.616;5.426;2023-05-10T08:47:24;25.02;;;13.98;;
62419;SDS011;48460;51.616;5.426;2023-05-10T08:49:50;25.77;;;14.43;;
62419;SDS011;48460;51.616;5.426;2023-05-10T08:52:21;30.13;;;14.40;;
62419;SDS011;48460;51.616;5.426;2023-05-10T08:54:54;23.02;;;12.88;;
62419;SDS011;48460;51.616;5.426;2023-05-10T08:57:46;22.40;;;12.15;;
62419;SDS011;48460;51.616;5.426;2023-05-10T09:03:40;21.17;;;11.98;;
62419;SDS011;48460;51.616;5.426;2023-05-10T09:06:17;25.00;;;12.18;;
62419;SDS011;48460;51.616;5.426;2023-05-10T09:08:46;24.25;;;13.20;;
62419;SDS011;48460;51.616;5.426;2023-05-10T09:11:37;22.48;;;12.88;;
62419;SDS011;48460;51.616;5.426;2023-05-10T09:14:24;25.95;;;13.68;;
62419;SDS011;48460;51.616;5.426;2023-05-10T09:16:50;25.63;;;13.35;;
62419;SDS011;48460;51.616;5.426;2023-05-10T09:19:19;21.95;;;13.55;;
62419;SDS011;48460;51.616;5.426;2023-05-10T09:21:53;26.17;;;14.68;;
62419;SDS011;48460;51.616;5.426;2023-05-10T09:24:26;19.15;;;12.93;;
62419;SDS011;48460;51.616;5.426;2023-05-10T09:26:54;17.83;;;11.88;;
62419;SDS011;48460;51.616;5.426;2023-05-10T09:30:01;20.90;;;13.80;;
62419;SDS011;48460;51.616;5.426;2023-05-10T09:32:49;20.98;;;14.02;;
62419;SDS011;48460;51.616;5.426;2023-05-10T09:35:29;24.05;;;13.35;;
62419;SDS011;48460;51.616;5.426;2023-05-10T09:38:11;20.52;;;12.63;;
62419;SDS011;48460;51.616;5.426;2023-05-10T09:40:56;20.83;;;11.93;;
62419;SDS011;48460;51.616;5.426;2023-05-10T09:43:23;15.95;;;10.75;;
62419;SDS011;48460;51.616;5.426;2023-05-10T09:45:55;22.00;;;10.98;;
62419;SDS011;48460;51.616;5.426;2023-05-10T09:48:48;19.13;;;10.68;;
62419;SDS011;48460;51.616;5.426;2023-05-10T09:51:38;17.52;;;11.02;;
62419;SDS011;48460;51.616;5.426;2023-05-10T09:54:18;18.92;;;10.30;;
62419;SDS011;48460;51.616;5.426;2023-05-10T09:56:52;18.40;;;10.23;;
62419;SDS011;48460;51.616;5.426;2023-05-10T09:59:20;15.98;;;10.35;;
62419;SDS011;48460;51.616;5.426;2023-05-10T10:02:01;15.55;;;9.70;;
62419;SDS011;48460;51.616;5.426;2023-05-10T10:07:21;17.67;;;10.18;;
62419;SDS011;48460;51.616;5.426;2023-05-10T10:10:29;14.90;;;8.70;;
62419;SDS011;48460;51.616;5.426;2023-05-10T10:13:19;14.98;;;8.98;;
62419;SDS011;48460;51.616;5.426;2023-05-10T10:15:49;15.02;;;8.68;;
62419;SDS011;48460;51.616;5.426;2023-05-10T10:18:17;15.45;;;9.05;;
62419;SDS011;48460;51.616;5.426;2023-05-10T10:21:21;13.43;;;8.48;;
62419;SDS011;48460;51.616;5.426;2023-05-10T10:23:50;13.20;;;8.07;;
62419;SDS011;48460;51.616;5.426;2023-05-10T10:26:18;19.98;;;10.30;;
62419;SDS011;48460;51.616;5.426;2023-05-10T10:34:52;19.60;;;12.25;;
62419;SDS011;48460;51.616;5.426;2023-05-10T10:37:25;19.85;;;12.85;;
62419;SDS011;48460;51.616;5.426;2023-05-10T10:40:30;22.93;;;12.40;;
62419;SDS011;48460;51.616;5.426;2023-05-10T10:46:42;24.45;;;13.15;;
62419;SDS011;48460;51.616;5.426;2023-05-10T10:52:49;20.35;;;12.18;;
62419;SDS011;48460;51.616;5.426;2023-05-10T10:55:17;20.17;;;12.10;;
62419;SDS011;48460;51.616;5.426;2023-05-10T10:58:07;20.90;;;11.98;;
62419;SDS011;48460;51.616;5.426;2023-05-10T11:11:24;18.73;;;10.98;;
62419;SDS011;48460;51.616;5.426;2023-05-10T11:14:13;17.77;;;10.90;;
62419;SDS011;48460;51.616;5.426;2023-05-10T11:20:40;19.55;;;10.75;;
62419;SDS011;48460;51.616;5.426;2023-05-10T11:23:14;18.75;;;10.77;;
62419;SDS011;48460;51.616;5.426;2023-05-10T11:26:03;12.93;;;9.32;;
62419;SDS011;48460;51.616;5.426;2023-05-10T11:28:44;14.23;;;9.68;;
62419;SDS011;48460;51.616;5.426;2023-05-10T11:31:34;14.13;;;9.10;;
62419;SDS011;48460;51.616;5.426;2023-05-10T11:34:04;17.55;;;9.10;;
62419;SDS011;48460;51.616;5.426;2023-05-10T11:36:33;12.10;;;8.77;;
62419;SDS011;48460;51.616;5.426;2023-05-10T11:39:11;12.98;;;8.93;;
62419;SDS011;48460;51.616;5.426;2023-05-10T11:41:37;14.77;;;8.43;;
62419;SDS011;48460;51.616;5.426;2023-05-10T11:44:05;13.05;;;8.00;;
62419;SDS011;48460;51.616;5.426;2023-05-10T11:46:41;11.93;;;8.20;;
62419;SDS011;48460;51.616;5.426;2023-05-10T11:49:09;13.05;;;8.95;;
62419;SDS011;48460;51.616;5.426;2023-05-10T11:51:39;12.25;;;8.43;;
62419;SDS011;48460;51.616;5.426;2023-05-10T11:54:25;14.02;;;8.52;;
62419;SDS011;48460;51.616;5.426;2023-05-10T11:56:52;14.02;;;8.40;;
62419;SDS011;48460;51.616;5.426;2023-05-10T11:59:21;12.93;;;7.63;;
62419;SDS011;48460;51.616;5.426;2023-05-10T12:01:50;13.90;;;8.23;;
62419;SDS011;48460;51.616;5.426;2023-05-10T12:04:23;15.68;;;8.68;;
62419;SDS011;48460;51.616;5.426;2023-05-10T12:06:51;11.23;;;7.88;;
62419;SDS011;48460;51.616;5.426;2023-05-10T12:09:16;12.73;;;7.85;;
62419;SDS011;48460;51.616;5.426;2023-05-10T12:11:42;10.32;;;6.68;;
62419;SDS011;48460;51.616;5.426;2023-05-10T12:14:08;7.72;;;5.68;;
62419;SDS011;48460;51.616;5.426;2023-05-10T12:16:45;10.65;;;5.70;;
62419;SDS011;48460;51.616;5.426;2023-05-10T12:19:18;8.48;;;6.05;;
62419;SDS011;48460;51.616;5.426;2023-05-10T12:22:25;10.27;;;6.07;;
62419;SDS011;48460;51.616;5.426;2023-05-10T12:25:11;10.02;;;6.05;;
62419;SDS011;48460;51.616;5.426;2023-05-10T12:27:38;10.82;;;6.80;;
62419;SDS011;48460;51.616;5.426;2023-05-10T12:30:06;11.43;;;6.90;;
62419;SDS011;48460;51.616;5.426;2023-05-10T12:32:38;9.20;;;6.53;;
62419;SDS011;48460;51.616;5.426;2023-05-10T12:35:05;10.25;;;5.60;;
62419;SDS011;48460;51.616;5.426;2023-05-10T12:37:34;9.70;;;6.22;;
62419;SDS011;48460;51.616;5.426;2023-05-10T12:40:07;12.80;;;7.50;;
62419;SDS011;48460;51.616;5.426;2023-05-10T12:42:39;13.80;;;8.10;;
62419;SDS011;48460;51.616;5.426;2023-05-10T12:45:14;18.27;;;10.43;;
62419;SDS011;48460;51.616;5.426;2023-05-10T12:47:42;15.85;;;12.55;;
62419;SDS011;48460;51.616;5.426;2023-05-10T12:50:10;15.15;;;13.23;;
62419;SDS011;48460;51.616;5.426;2023-05-10T12:52:38;18.55;;;14.02;;
62419;SDS011;48460;51.616;5.426;2023-05-10T12:55:07;15.35;;;13.27;;
62419;SDS011;48460;51.616;5.426;2023-05-10T12:57:42;15.63;;;13.57;;
62419;SDS011;48460;51.616;5.426;2023-05-10T13:00:13;16.42;;;13.60;;
62419;SDS011;48460;51.616;5.426;2023-05-10T13:02:39;16.55;;;12.85;;
62419;SDS011;48460;51.616;5.426;2023-05-10T13:05:10;19.02;;;11.57;;
62419;SDS011;48460;51.616;5.426;2023-05-10T13:07:47;17.00;;;13.67;;
62419;SDS011;48460;51.616;5.426;2023-05-10T13:10:15;16.83;;;12.85;;
62419;SDS011;48460;51.616;5.426;2023-05-10T13:12:41;16.52;;;12.05;;
62419;SDS011;48460;51.616;5.426;2023-05-10T13:15:07;15.43;;;11.23;;
62419;SDS011;48460;51.616;5.426;2023-05-10T13:17:35;15.00;;;10.60;;
62419;SDS011;48460;51.616;5.426;2023-05-10T13:20:04;13.80;;;10.73;;
62419;SDS011;48460;51.616;5.426;2023-05-10T13:22:30;14.10;;;10.60;;
62419;SDS011;48460;51.616;5.426;2023-05-10T13:24:57;12.65;;;10.48;;
62419;SDS011;48460;51.616;5.426;2023-05-10T13:27:30;14.65;;;11.00;;
62419;SDS011;48460;51.616;5.426;2023-05-10T13:30:01;13.18;;;10.35;;
62419;SDS011;48460;51.616;5.426;2023-05-10T13:32:53;10.73;;;8.73;;
62419;SDS011;48460;51.616;5.426;2023-05-10T13:35:18;15.38;;;8.48;;
62419;SDS011;48460;51.616;5.426;2023-05-10T13:40:58;12.40;;;9.50;;
62419;SDS011;48460;51.616;5.426;2023-05-10T13:43:26;10.95;;;9.75;;
62419;SDS011;48460;51.616;5.426;2023-05-10T13:45:52;14.77;;;10.40;;
62419;SDS011;48460;51.616;5.426;2023-05-10T13:48:18;12.60;;;9.77;;
62419;SDS011;48460;51.616;5.426;2023-05-10T13:50:43;15.43;;;10.68;;
62419;SDS011;48460;51.616;5.426;2023-05-10T13:53:09;13.95;;;11.15;;
62419;SDS011;48460;51.616;5.426;2023-05-10T13:55:34;14.02;;;11.23;;
62419;SDS011;48460;51.616;5.426;2023-05-10T13:58:00;15.98;;;12.32;;
62419;SDS011;48460;51.616;5.426;2023-05-10T14:00:26;16.00;;;12.15;;
62419;SDS011;48460;51.616;5.426;2023-05-10T14:02:54;17.10;;;14.18;;
62419;SDS011;48460;51.616;5.426;2023-05-10T14:05:20;17.23;;;14.27;;
62419;SDS011;48460;51.616;5.426;2023-05-10T14:07:49;22.60;;;14.20;;
62419;SDS011;48460;51.616;5.426;2023-05-10T14:10:20;17.58;;;14.60;;
62419;SDS011;48460;51.616;5.426;2023-05-10T14:13:09;17.45;;;13.98;;
62419;SDS011;48460;51.616;5.426;2023-05-10T14:15:36;19.90;;;13.98;;
62419;SDS011;48460;51.616;5.426;2023-05-10T14:18:12;16.02;;;14.23;;
62419;SDS011;48460;51.616;5.426;2023-05-10T14:20:45;21.83;;;14.90;;
62419;SDS011;48460;51.616;5.426;2023-05-10T14:23:10;20.80;;;14.82;;
62419;SDS011;48460;51.616;5.426;2023-05-10T14:25:44;18.50;;;13.52;;
62419;SDS011;48460;51.616;5.426;2023-05-10T14:28:13;17.65;;;12.80;;
62419;SDS011;48460;51.616;5.426;2023-05-10T14:30:48;18.98;;;13.43;;
62419;SDS011;48460;51.616;5.426;2023-05-10T14:33:16;18.67;;;13.20;;
62419;SDS011;48460;51.616;5.426;2023-05-10T14:35:49;16.30;;;13.38;;
62419;SDS011;48460;51.616;5.426;2023-05-10T14:38:21;18.75;;;13.98;;
62419;SDS011;48460;51.616;5.426;2023-05-10T14:40:49;21.63;;;14.65;;
62419;SDS011;48460;51.616;5.426;2023-05-10T14:43:16;22.13;;;14.52;;
62419;SDS011;48460;51.616;5.426;2023-05-10T14:45:47;20.42;;;13.68;;
62419;SDS011;48460;51.616;5.426;2023-05-10T14:48:20;22.02;;;14.68;;
